sensor_id;sensor_type;location;lat;lon;timestamp;temperature;humidity
38241;DHT22;24037;49.536;8.500;2023-09-08T00:02:01;15.20;99.90
38241;DHT22;24037;49.536;8.500;2023-09-08T00:04:27;15.00;1.00
38241;DHT22;24037;49.536;8.500;2023-09-08T00:06:54;14.90;1.00
38241;DHT22;24037;49.536;8.500;2023-09-08T00:09:20;14.70;1.00
38241;DHT22;24037;49.536;8.500;2023-09-08T00:11:46;14.60;1.00
38241;DHT22;24037;49.536;8.500;2023-09-08T00:14:12;14.60;1.00
38241;DHT22;24037;49.536;8.500;2023-09-08T00:16:38;14.60;1.00
38241;DHT22;24037;49.536;8.500;2023-09-08T00:19:09;14.60;1.00
38241;DHT22;24037;49.536;8.500;2023-09-08T00:21:37;14.50;1.00
38241;DHT22;24037;49.536;8.500;2023-09-08T00:24:04;14.50;1.00
38241;DHT22;24037;49.536;8.500;2023-09-08T00:26:31;14.40;1.00
38241;DHT22;24037;49.536;8.500;2023-09-08T00:28:58;14.30;1.00
38241;DHT22;24037;49.536;8.500;2023-09-08T00:31:24;14.20;1.00
38241;DHT22;24037;49.536;8.500;2023-09-08T00:33:50;14.20;1.00
38241;DHT22;24037;49.536;8.500;2023-09-08T00:36:16;14.10;1.00
38241;DHT22;24037;49.536;8.500;2023-09-08T00:38:42;14.10;1.00
38241;DHT22;24037;49.536;8.500;2023-09-08T00:41:08;14.30;8.40
38241;DHT22;24037;49.536;8.500;2023-09-08T00:43:34;14.30;1.00
38241;DHT22;24037;49.536;8.500;2023-09-08T00:46:01;14.30;1.00
38241;DHT22;24037;49.536;8.500;2023-09-08T00:48:29;14.40;1.00
38241;DHT22;24037;49.536;8.500;2023-09-08T00:50:56;14.40;1.00
38241;DHT22;24037;49.536;8.500;2023-09-08T00:53:23;14.40;1.00
38241;DHT22;24037;49.536;8.500;2023-09-08T00:55:50;14.40;1.00
38241;DHT22;24037;49.536;8.500;2023-09-08T00:58:17;14.40;1.00
38241;DHT22;24037;49.536;8.500;2023-09-08T01:00:44;14.50;1.00
38241;DHT22;24037;49.536;8.500;2023-09-08T01:03:13;14.40;1.00
38241;DHT22;24037;49.536;8.500;2023-09-08T01:05:40;14.40;1.00
38241;DHT22;24037;49.536;8.500;2023-09-08T01:08:07;14.40;1.00
38241;DHT22;24037;49.536;8.500;2023-09-08T01:10:34;14.40;1.00
38241;DHT22;24037;49.536;8.500;2023-09-08T01:13:03;14.30;1.00
38241;DHT22;24037;49.536;8.500;2023-09-08T01:15:29;14.40;1.00
38241;DHT22;24037;49.536;8.500;2023-09-08T01:17:55;14.30;1.00
38241;DHT22;24037;49.536;8.500;2023-09-08T01:20:30;14.10;1.00
38241;DHT22;24037;49.536;8.500;2023-09-08T01:23:17;14.00;2.00
38241;DHT22;24037;49.536;8.500;2023-09-08T01:25:57;14.00;9.60
38241;DHT22;24037;49.536;8.500;2023-09-08T01:28:26;14.10;14.10
38241;DHT22;24037;49.536;8.500;2023-09-08T01:30:53;14.10;9.20
38241;DHT22;24037;49.536;8.500;2023-09-08T01:33:20;14.00;12.10
38241;DHT22;24037;49.536;8.500;2023-09-08T01:35:48;13.80;5.10
38241;DHT22;24037;49.536;8.500;2023-09-08T01:38:14;13.80;24.30
38241;DHT22;24037;49.536;8.500;2023-09-08T01:40:40;13.70;45.30
38241;DHT22;24037;49.536;8.500;2023-09-08T01:43:07;13.80;49.10
38241;DHT22;24037;49.536;8.500;2023-09-08T01:45:33;13.90;44.70
38241;DHT22;24037;49.536;8.500;2023-09-08T01:47:59;13.90;40.60
38241;DHT22;24037;49.536;8.500;2023-09-08T01:50:25;13.90;46.70
38241;DHT22;24037;49.536;8.500;2023-09-08T01:52:52;13.90;45.10
38241;DHT22;24037;49.536;8.500;2023-09-08T01:55:18;13.80;29.90
38241;DHT22;24037;49.536;8.500;2023-09-08T01:57:44;13.70;27.60
38241;DHT22;24037;49.536;8.500;2023-09-08T02:00:11;13.70;45.10
38241;DHT22;24037;49.536;8.500;2023-09-08T02:02:40;13.80;60.50
38241;DHT22;24037;49.536;8.500;2023-09-08T02:05:07;13.80;54.70
38241;DHT22;24037;49.536;8.500;2023-09-08T02:07:36;13.80;46.00
38241;DHT22;24037;49.536;8.500;2023-09-08T02:10:02;13.80;46.80
38241;DHT22;24037;49.536;8.500;2023-09-08T02:12:28;13.90;39.10
38241;DHT22;24037;49.536;8.500;2023-09-08T02:14:55;13.90;36.40
38241;DHT22;24037;49.536;8.500;2023-09-08T02:17:21;13.90;30.00
38241;DHT22;24037;49.536;8.500;2023-09-08T02:19:47;13.90;23.60
38241;DHT22;24037;49.536;8.500;2023-09-08T02:22:14;13.90;23.40
38241;DHT22;24037;49.536;8.500;2023-09-08T02:24:40;13.90;18.80
38241;DHT22;24037;49.536;8.500;2023-09-08T02:27:06;13.80;14.50
38241;DHT22;24037;49.536;8.500;2023-09-08T02:29:33;13.70;1.00
38241;DHT22;24037;49.536;8.500;2023-09-08T02:31:59;13.80;6.70
38241;DHT22;24037;49.536;8.500;2023-09-08T02:34:25;13.80;6.20
38241;DHT22;24037;49.536;8.500;2023-09-08T02:36:51;13.80;1.00
38241;DHT22;24037;49.536;8.500;2023-09-08T02:39:21;13.70;8.70
38241;DHT22;24037;49.536;8.500;2023-09-08T02:41:49;13.50;17.60
38241;DHT22;24037;49.536;8.500;2023-09-08T02:44:15;13.50;24.10
38241;DHT22;24037;49.536;8.500;2023-09-08T02:46:43;13.50;55.20
38241;DHT22;24037;49.536;8.500;2023-09-08T02:49:09;13.50;82.80
38241;DHT22;24037;49.536;8.500;2023-09-08T02:51:35;13.60;76.90
38241;DHT22;24037;49.536;8.500;2023-09-08T02:54:02;13.50;45.20
38241;DHT22;24037;49.536;8.500;2023-09-08T02:56:28;13.40;46.70
38241;DHT22;24037;49.536;8.500;2023-09-08T02:58:54;13.20;57.10
38241;DHT22;24037;49.536;8.500;2023-09-08T03:01:20;13.10;84.20
38241;DHT22;24037;49.536;8.500;2023-09-08T03:03:47;13.20;99.90
38241;DHT22;24037;49.536;8.500;2023-09-08T03:06:15;13.10;99.90
38241;DHT22;24037;49.536;8.500;2023-09-08T03:08:41;13.20;99.90
38241;DHT22;24037;49.536;8.500;2023-09-08T03:11:08;13.10;99.90
38241;DHT22;24037;49.536;8.500;2023-09-08T03:13:35;13.10;99.90
38241;DHT22;24037;49.536;8.500;2023-09-08T03:16:06;13.10;99.90
38241;DHT22;24037;49.536;8.500;2023-09-08T03:18:33;13.10;99.90
38241;DHT22;24037;49.536;8.500;2023-09-08T03:21:01;13.00;99.90
38241;DHT22;24037;49.536;8.500;2023-09-08T03:23:43;13.10;99.90
38241;DHT22;24037;49.536;8.500;2023-09-08T03:26:10;13.20;99.90
38241;DHT22;24037;49.536;8.500;2023-09-08T03:28:37;13.10;99.90
38241;DHT22;24037;49.536;8.500;2023-09-08T03:31:05;13.20;99.90
38241;DHT22;24037;49.536;8.500;2023-09-08T03:33:34;13.10;99.90
38241;DHT22;24037;49.536;8.500;2023-09-08T03:36:01;13.10;99.90
38241;DHT22;24037;49.536;8.500;2023-09-08T03:38:29;13.10;99.90
38241;DHT22;24037;49.536;8.500;2023-09-08T03:40:55;13.10;99.90
38241;DHT22;24037;49.536;8.500;2023-09-08T03:43:21;13.10;99.90
38241;DHT22;24037;49.536;8.500;2023-09-08T03:45:47;13.10;99.90
38241;DHT22;24037;49.536;8.500;2023-09-08T03:48:13;13.20;99.90
38241;DHT22;24037;49.536;8.500;2023-09-08T03:50:40;13.10;99.90
38241;DHT22;24037;49.536;8.500;2023-09-08T03:53:06;13.10;99.90
38241;DHT22;24037;49.536;8.500;2023-09-08T03:55:32;13.10;99.90
38241;DHT22;24037;49.536;8.500;2023-09-08T03:57:58;13.10;99.90
38241;DHT22;24037;49.536;8.500;2023-09-08T04:00:24;13.00;99.90
38241;DHT22;24037;49.536;8.500;2023-09-08T04:02:51;12.90;98.60
38241;DHT22;24037;49.536;8.500;2023-09-08T04:05:17;12.80;94.90
38241;DHT22;24037;49.536;8.500;2023-09-08T04:07:45;12.70;95.10
38241;DHT22;24037;49.536;8.500;2023-09-08T04:10:11;12.70;99.90
38241;DHT22;24037;49.536;8.500;2023-09-08T04:12:39;12.80;99.90
38241;DHT22;24037;49.536;8.500;2023-09-08T04:15:07;12.80;99.90
38241;DHT22;24037;49.536;8.500;2023-09-08T04:17:33;12.80;99.90
38241;DHT22;24037;49.536;8.500;2023-09-08T04:20:00;12.80;99.90
38241;DHT22;24037;49.536;8.500;2023-09-08T04:22:26;12.90;99.90
38241;DHT22;24037;49.536;8.500;2023-09-08T04:24:52;12.90;99.90
38241;DHT22;24037;49.536;8.500;2023-09-08T04:27:20;12.90;99.90
38241;DHT22;24037;49.536;8.500;2023-09-08T04:29:47;12.90;99.90
38241;DHT22;24037;49.536;8.500;2023-09-08T04:32:13;12.80;99.90
38241;DHT22;24037;49.536;8.500;2023-09-08T04:34:40;12.70;99.90
38241;DHT22;24037;49.536;8.500;2023-09-08T04:37:07;12.80;99.90
38241;DHT22;24037;49.536;8.500;2023-09-08T04:39:34;12.70;99.90
38241;DHT22;24037;49.536;8.500;2023-09-08T04:42:01;12.70;99.90
38241;DHT22;24037;49.536;8.500;2023-09-08T04:44:27;12.70;99.90
38241;DHT22;24037;49.536;8.500;2023-09-08T04:46:55;12.70;99.90
38241;DHT22;24037;49.536;8.500;2023-09-08T04:49:21;12.80;99.90
38241;DHT22;24037;49.536;8.500;2023-09-08T04:51:47;12.70;99.90
38241;DHT22;24037;49.536;8.500;2023-09-08T04:54:18;12.70;99.90
38241;DHT22;24037;49.536;8.500;2023-09-08T04:56:47;12.70;99.90
38241;DHT22;24037;49.536;8.500;2023-09-08T04:59:14;12.70;99.90
38241;DHT22;24037;49.536;8.500;2023-09-08T05:01:40;12.80;99.90
38241;DHT22;24037;49.536;8.500;2023-09-08T05:04:07;12.70;99.90
38241;DHT22;24037;49.536;8.500;2023-09-08T05:06:35;12.70;99.90
38241;DHT22;24037;49.536;8.500;2023-09-08T05:09:01;12.60;99.90
38241;DHT22;24037;49.536;8.500;2023-09-08T05:11:29;12.60;99.90
38241;DHT22;24037;49.536;8.500;2023-09-08T05:13:57;12.50;99.90
38241;DHT22;24037;49.536;8.500;2023-09-08T05:16:24;12.50;99.90
38241;DHT22;24037;49.536;8.500;2023-09-08T05:19:07;12.60;99.90
38241;DHT22;24037;49.536;8.500;2023-09-08T05:21:34;12.70;99.90
38241;DHT22;24037;49.536;8.500;2023-09-08T05:24:02;12.80;99.90
38241;DHT22;24037;49.536;8.500;2023-09-08T05:26:29;12.80;99.90
38241;DHT22;24037;49.536;8.500;2023-09-08T05:28:55;12.80;97.40
38241;DHT22;24037;49.536;8.500;2023-09-08T05:31:21;12.80;99.40
38241;DHT22;24037;49.536;8.500;2023-09-08T05:33:47;12.80;99.90
38241;DHT22;24037;49.536;8.500;2023-09-08T05:36:14;13.10;99.90
38241;DHT22;24037;49.536;8.500;2023-09-08T05:38:40;14.00;58.10
38241;DHT22;24037;49.536;8.500;2023-09-08T05:41:06;15.30;1.00
38241;DHT22;24037;49.536;8.500;2023-09-08T05:43:32;16.80;99.90
38241;DHT22;24037;49.536;8.500;2023-09-08T05:45:59;18.00;1.00
38241;DHT22;24037;49.536;8.500;2023-09-08T05:48:25;18.90;99.90
38241;DHT22;24037;49.536;8.500;2023-09-08T05:50:51;19.90;99.90
38241;DHT22;24037;49.536;8.500;2023-09-08T05:53:18;20.10;99.90
38241;DHT22;24037;49.536;8.500;2023-09-08T05:55:44;20.40;99.90
38241;DHT22;24037;49.536;8.500;2023-09-08T05:58:11;20.50;99.90
38241;DHT22;24037;49.536;8.500;2023-09-08T06:00:37;20.80;99.90
38241;DHT22;24037;49.536;8.500;2023-09-08T06:03:03;20.80;99.90
38241;DHT22;24037;49.536;8.500;2023-09-08T06:05:30;20.50;99.90
38241;DHT22;24037;49.536;8.500;2023-09-08T06:07:56;20.40;99.90
38241;DHT22;24037;49.536;8.500;2023-09-08T06:10:23;20.80;99.90
38241;DHT22;24037;49.536;8.500;2023-09-08T06:12:49;21.50;99.90
38241;DHT22;24037;49.536;8.500;2023-09-08T06:15:17;22.60;99.90
38241;DHT22;24037;49.536;8.500;2023-09-08T06:17:44;23.50;81.60
38241;DHT22;24037;49.536;8.500;2023-09-08T06:20:11;23.50;70.20
38241;DHT22;24037;49.536;8.500;2023-09-08T06:22:38;22.90;92.00
38241;DHT22;24037;49.536;8.500;2023-09-08T06:25:04;22.10;99.90
38241;DHT22;24037;49.536;8.500;2023-09-08T06:27:31;22.00;99.90
38241;DHT22;24037;49.536;8.500;2023-09-08T06:29:57;21.80;99.90
38241;DHT22;24037;49.536;8.500;2023-09-08T06:32:24;21.30;99.90
38241;DHT22;24037;49.536;8.500;2023-09-08T06:34:50;21.00;99.90
38241;DHT22;24037;49.536;8.500;2023-09-08T06:37:16;20.60;99.90
38241;DHT22;24037;49.536;8.500;2023-09-08T06:39:42;20.50;99.90
38241;DHT22;24037;49.536;8.500;2023-09-08T06:42:09;20.40;99.90
38241;DHT22;24037;49.536;8.500;2023-09-08T06:44:37;20.70;99.90
38241;DHT22;24037;49.536;8.500;2023-09-08T06:47:04;21.10;99.90
38241;DHT22;24037;49.536;8.500;2023-09-08T06:49:33;20.90;99.90
38241;DHT22;24037;49.536;8.500;2023-09-08T06:52:00;20.70;99.90
38241;DHT22;24037;49.536;8.500;2023-09-08T06:54:26;20.90;99.90
38241;DHT22;24037;49.536;8.500;2023-09-08T06:56:52;21.00;99.90
38241;DHT22;24037;49.536;8.500;2023-09-08T06:59:18;21.00;99.90
38241;DHT22;24037;49.536;8.500;2023-09-08T07:01:44;21.20;99.90
38241;DHT22;24037;49.536;8.500;2023-09-08T07:04:11;21.50;99.90
38241;DHT22;24037;49.536;8.500;2023-09-08T07:06:38;21.30;99.90
38241;DHT22;24037;49.536;8.500;2023-09-08T07:09:07;21.40;99.90
38241;DHT22;24037;49.536;8.500;2023-09-08T07:11:34;21.50;99.90
38241;DHT22;24037;49.536;8.500;2023-09-08T07:14:01;21.30;99.90
38241;DHT22;24037;49.536;8.500;2023-09-08T07:16:28;21.60;99.90
38241;DHT22;24037;49.536;8.500;2023-09-08T07:18:54;21.30;99.90
38241;DHT22;24037;49.536;8.500;2023-09-08T07:21:21;21.90;99.90
38241;DHT22;24037;49.536;8.500;2023-09-08T07:23:47;22.00;99.90
38241;DHT22;24037;49.536;8.500;2023-09-08T07:26:14;22.50;99.90
38241;DHT22;24037;49.536;8.500;2023-09-08T07:28:40;22.20;99.90
38241;DHT22;24037;49.536;8.500;2023-09-08T07:31:11;22.50;99.90
38241;DHT22;24037;49.536;8.500;2023-09-08T07:33:40;21.80;99.90
38241;DHT22;24037;49.536;8.500;2023-09-08T07:36:07;21.50;99.90
38241;DHT22;24037;49.536;8.500;2023-09-08T07:38:34;21.90;99.90
38241;DHT22;24037;49.536;8.500;2023-09-08T07:41:02;22.10;99.90
38241;DHT22;24037;49.536;8.500;2023-09-08T07:43:28;22.40;99.90
38241;DHT22;24037;49.536;8.500;2023-09-08T07:45:55;23.50;95.60
38241;DHT22;24037;49.536;8.500;2023-09-08T07:48:21;23.70;93.80
38241;DHT22;24037;49.536;8.500;2023-09-08T07:50:47;23.40;92.10
38241;DHT22;24037;49.536;8.500;2023-09-08T07:53:13;23.30;99.90
38241;DHT22;24037;49.536;8.500;2023-09-08T07:55:39;23.30;95.90
38241;DHT22;24037;49.536;8.500;2023-09-08T07:58:07;23.50;96.10
38241;DHT22;24037;49.536;8.500;2023-09-08T08:00:34;23.70;86.50
38241;DHT22;24037;49.536;8.500;2023-09-08T08:03:00;23.80;79.70
38241;DHT22;24037;49.536;8.500;2023-09-08T08:05:27;23.40;54.00
38241;DHT22;24037;49.536;8.500;2023-09-08T08:07:53;23.70;50.10
38241;DHT22;24037;49.536;8.500;2023-09-08T08:10:19;24.00;36.80
38241;DHT22;24037;49.536;8.500;2023-09-08T08:12:46;24.80;37.90
38241;DHT22;24037;49.536;8.500;2023-09-08T08:15:12;25.30;1.00
38241;DHT22;24037;49.536;8.500;2023-09-08T08:17:39;25.60;1.00
38241;DHT22;24037;49.536;8.500;2023-09-08T08:20:07;25.60;1.00
38241;DHT22;24037;49.536;8.500;2023-09-08T08:22:38;25.40;1.00
38241;DHT22;24037;49.536;8.500;2023-09-08T08:25:05;25.30;1.00
38241;DHT22;24037;49.536;8.500;2023-09-08T08:27:31;24.80;1.00
38241;DHT22;24037;49.536;8.500;2023-09-08T08:29:58;24.90;1.00
38241;DHT22;24037;49.536;8.500;2023-09-08T08:32:28;25.30;1.00
38241;DHT22;24037;49.536;8.500;2023-09-08T08:34:55;25.50;1.00
38241;DHT22;24037;49.536;8.500;2023-09-08T08:37:21;25.20;1.00
38241;DHT22;24037;49.536;8.500;2023-09-08T08:39:47;25.80;1.00
38241;DHT22;24037;49.536;8.500;2023-09-08T08:42:13;26.40;1.00
38241;DHT22;24037;49.536;8.500;2023-09-08T08:44:40;26.70;1.00
38241;DHT22;24037;49.536;8.500;2023-09-08T08:47:08;27.10;1.00
38241;DHT22;24037;49.536;8.500;2023-09-08T08:49:36;27.50;1.00
38241;DHT22;24037;49.536;8.500;2023-09-08T08:52:03;26.80;1.00
38241;DHT22;24037;49.536;8.500;2023-09-08T08:54:41;25.70;1.00
38241;DHT22;24037;49.536;8.500;2023-09-08T08:57:09;25.90;1.00
38241;DHT22;24037;49.536;8.500;2023-09-08T08:59:35;26.70;1.00
38241;DHT22;24037;49.536;8.500;2023-09-08T09:02:03;27.20;1.00
38241;DHT22;24037;49.536;8.500;2023-09-08T09:04:31;27.10;1.00
38241;DHT22;24037;49.536;8.500;2023-09-08T09:06:57;27.30;1.00
38241;DHT22;24037;49.536;8.500;2023-09-08T09:09:24;27.90;1.00
38241;DHT22;24037;49.536;8.500;2023-09-08T09:11:51;28.20;1.00
38241;DHT22;24037;49.536;8.500;2023-09-08T09:14:17;27.70;1.00
38241;DHT22;24037;49.536;8.500;2023-09-08T09:16:44;27.50;1.00
38241;DHT22;24037;49.536;8.500;2023-09-08T09:19:18;27.80;1.00
38241;DHT22;24037;49.536;8.500;2023-09-08T09:21:54;27.80;1.00
38241;DHT22;24037;49.536;8.500;2023-09-08T09:24:31;28.10;1.00
38241;DHT22;24037;49.536;8.500;2023-09-08T09:26:59;28.10;1.00
38241;DHT22;24037;49.536;8.500;2023-09-08T09:29:27;27.60;1.00
38241;DHT22;24037;49.536;8.500;2023-09-08T09:31:57;27.80;1.00
38241;DHT22;24037;49.536;8.500;2023-09-08T09:34:23;28.00;1.00
38241;DHT22;24037;49.536;8.500;2023-09-08T09:36:50;27.80;1.00
38241;DHT22;24037;49.536;8.500;2023-09-08T09:39:20;27.90;1.00
38241;DHT22;24037;49.536;8.500;2023-09-08T09:41:47;27.50;1.00
38241;DHT22;24037;49.536;8.500;2023-09-08T09:44:15;27.30;1.00
38241;DHT22;24037;49.536;8.500;2023-09-08T09:46:48;27.50;1.00
38241;DHT22;24037;49.536;8.500;2023-09-08T09:49:17;27.40;1.00
38241;DHT22;24037;49.536;8.500;2023-09-08T09:51:48;27.10;1.00
38241;DHT22;24037;49.536;8.500;2023-09-08T09:54:15;27.20;1.00
38241;DHT22;24037;49.536;8.500;2023-09-08T09:56:42;27.30;1.00
38241;DHT22;24037;49.536;8.500;2023-09-08T09:59:13;26.90;1.00
38241;DHT22;24037;49.536;8.500;2023-09-08T10:01:41;26.80;1.00
38241;DHT22;24037;49.536;8.500;2023-09-08T10:04:08;26.70;1.00
38241;DHT22;24037;49.536;8.500;2023-09-08T10:06:36;26.50;1.00
38241;DHT22;24037;49.536;8.500;2023-09-08T10:09:04;26.40;1.00
38241;DHT22;24037;49.536;8.500;2023-09-08T10:11:50;26.70;1.00
38241;DHT22;24037;49.536;8.500;2023-09-08T10:14:18;26.50;1.00
38241;DHT22;24037;49.536;8.500;2023-09-08T10:16:45;26.80;1.00
38241;DHT22;24037;49.536;8.500;2023-09-08T10:19:16;27.00;1.00
38241;DHT22;24037;49.536;8.500;2023-09-08T10:21:45;27.10;1.00
38241;DHT22;24037;49.536;8.500;2023-09-08T10:24:21;27.40;1.00
38241;DHT22;24037;49.536;8.500;2023-09-08T10:27:04;27.40;1.00
38241;DHT22;24037;49.536;8.500;2023-09-08T10:29:32;27.40;1.00
38241;DHT22;24037;49.536;8.500;2023-09-08T10:31:59;27.20;1.00
38241;DHT22;24037;49.536;8.500;2023-09-08T10:34:26;27.00;1.00
38241;DHT22;24037;49.536;8.500;2023-09-08T10:36:53;26.90;1.00
38241;DHT22;24037;49.536;8.500;2023-09-08T10:39:36;26.90;1.00
38241;DHT22;24037;49.536;8.500;2023-09-08T10:47:30;27.20;1.00
38241;DHT22;24037;49.536;8.500;2023-09-08T10:49:56;27.20;1.00
38241;DHT22;24037;49.536;8.500;2023-09-08T10:52:25;27.10;1.00
38241;DHT22;24037;49.536;8.500;2023-09-08T10:54:53;26.90;1.00
38241;DHT22;24037;49.536;8.500;2023-09-08T10:57:27;27.10;1.00
38241;DHT22;24037;49.536;8.500;2023-09-08T10:59:55;27.10;1.00
38241;DHT22;24037;49.536;8.500;2023-09-08T11:02:40;27.10;1.00
38241;DHT22;24037;49.536;8.500;2023-09-08T11:05:12;26.90;1.00
38241;DHT22;24037;49.536;8.500;2023-09-08T11:07:40;27.10;1.00
38241;DHT22;24037;49.536;8.500;2023-09-08T11:10:08;27.40;1.00
38241;DHT22;24037;49.536;8.500;2023-09-08T11:12:34;27.70;1.00
38241;DHT22;24037;49.536;8.500;2023-09-08T11:15:05;27.90;1.00
38241;DHT22;24037;49.536;8.500;2023-09-08T11:17:32;28.20;1.00
38241;DHT22;24037;49.536;8.500;2023-09-08T11:20:01;28.20;1.00
38241;DHT22;24037;49.536;8.500;2023-09-08T11:22:27;28.30;1.00
38241;DHT22;24037;49.536;8.500;2023-09-08T11:24:56;28.30;1.00
38241;DHT22;24037;49.536;8.500;2023-09-08T11:27:23;28.50;1.00
38241;DHT22;24037;49.536;8.500;2023-09-08T11:29:50;28.70;1.00
38241;DHT22;24037;49.536;8.500;2023-09-08T11:32:16;28.60;1.00
38241;DHT22;24037;49.536;8.500;2023-09-08T11:34:42;28.30;1.00
38241;DHT22;24037;49.536;8.500;2023-09-08T11:37:12;28.10;1.00
38241;DHT22;24037;49.536;8.500;2023-09-08T11:39:40;28.30;1.00
38241;DHT22;24037;49.536;8.500;2023-09-08T11:42:07;28.40;1.00
38241;DHT22;24037;49.536;8.500;2023-09-08T11:44:35;28.50;1.00
38241;DHT22;24037;49.536;8.500;2023-09-08T11:47:03;28.60;1.00
38241;DHT22;24037;49.536;8.500;2023-09-08T11:49:40;28.70;1.00
38241;DHT22;24037;49.536;8.500;2023-09-08T11:52:07;28.70;1.00
38241;DHT22;24037;49.536;8.500;2023-09-08T11:54:34;28.70;1.00
38241;DHT22;24037;49.536;8.500;2023-09-08T11:57:03;28.90;1.00
38241;DHT22;24037;49.536;8.500;2023-09-08T11:59:34;28.80;1.00
38241;DHT22;24037;49.536;8.500;2023-09-08T12:02:01;28.40;1.00
38241;DHT22;24037;49.536;8.500;2023-09-08T12:04:27;28.50;1.00
38241;DHT22;24037;49.536;8.500;2023-09-08T12:06:54;28.60;1.00
38241;DHT22;24037;49.536;8.500;2023-09-08T12:09:23;28.80;1.00
38241;DHT22;24037;49.536;8.500;2023-09-08T12:11:51;28.90;1.00
38241;DHT22;24037;49.536;8.500;2023-09-08T12:14:17;28.90;1.00
38241;DHT22;24037;49.536;8.500;2023-09-08T12:16:43;29.10;1.00
38241;DHT22;24037;49.536;8.500;2023-09-08T12:19:28;29.20;1.00
38241;DHT22;24037;49.536;8.500;2023-09-08T12:21:57;29.20;1.00
38241;DHT22;24037;49.536;8.500;2023-09-08T12:24:45;29.00;1.00
38241;DHT22;24037;49.536;8.500;2023-09-08T12:27:11;28.80;1.00
38241;DHT22;24037;49.536;8.500;2023-09-08T12:29:38;28.70;1.00
38241;DHT22;24037;49.536;8.500;2023-09-08T12:32:04;28.40;1.00
38241;DHT22;24037;49.536;8.500;2023-09-08T12:34:31;28.60;1.00
38241;DHT22;24037;49.536;8.500;2023-09-08T12:36:57;28.60;1.00
38241;DHT22;24037;49.536;8.500;2023-09-08T12:39:23;28.50;1.00
38241;DHT22;24037;49.536;8.500;2023-09-08T12:41:49;28.60;1.00
38241;DHT22;24037;49.536;8.500;2023-09-08T12:44:15;28.70;1.00
38241;DHT22;24037;49.536;8.500;2023-09-08T12:46:41;29.00;1.00
38241;DHT22;24037;49.536;8.500;2023-09-08T12:49:07;29.20;1.00
38241;DHT22;24037;49.536;8.500;2023-09-08T12:51:33;29.30;1.00
38241;DHT22;24037;49.536;8.500;2023-09-08T12:53:59;29.20;1.00
38241;DHT22;24037;49.536;8.500;2023-09-08T12:56:26;29.20;1.00
38241;DHT22;24037;49.536;8.500;2023-09-08T12:58:52;29.40;1.00
38241;DHT22;24037;49.536;8.500;2023-09-08T13:01:18;29.50;1.00
38241;DHT22;24037;49.536;8.500;2023-09-08T13:03:44;29.30;1.00
38241;DHT22;24037;49.536;8.500;2023-09-08T13:06:10;29.30;1.00
38241;DHT22;24037;49.536;8.500;2023-09-08T13:08:36;29.50;1.00
38241;DHT22;24037;49.536;8.500;2023-09-08T13:11:02;29.70;1.00
38241;DHT22;24037;49.536;8.500;2023-09-08T13:13:29;29.40;1.00
38241;DHT22;24037;49.536;8.500;2023-09-08T13:15:56;29.20;1.00
38241;DHT22;24037;49.536;8.500;2023-09-08T13:18:22;29.30;1.00
38241;DHT22;24037;49.536;8.500;2023-09-08T13:20:48;29.50;1.00
38241;DHT22;24037;49.536;8.500;2023-09-08T13:23:14;29.60;1.00
38241;DHT22;24037;49.536;8.500;2023-09-08T13:25:40;29.70;1.00
38241;DHT22;24037;49.536;8.500;2023-09-08T13:28:07;29.30;1.00
38241;DHT22;24037;49.536;8.500;2023-09-08T13:30:33;29.30;1.00
38241;DHT22;24037;49.536;8.500;2023-09-08T13:32:59;29.20;1.00
38241;DHT22;24037;49.536;8.500;2023-09-08T13:35:26;29.30;1.00
38241;DHT22;24037;49.536;8.500;2023-09-08T13:37:53;29.40;1.00
38241;DHT22;24037;49.536;8.500;2023-09-08T13:40:19;29.20;1.00
38241;DHT22;24037;49.536;8.500;2023-09-08T13:42:45;29.20;1.00
38241;DHT22;24037;49.536;8.500;2023-09-08T13:45:11;29.40;1.00
38241;DHT22;24037;49.536;8.500;2023-09-08T13:47:38;29.40;1.00
38241;DHT22;24037;49.536;8.500;2023-09-08T13:50:05;29.30;1.00
38241;DHT22;24037;49.536;8.500;2023-09-08T13:52:31;29.30;1.00
38241;DHT22;24037;49.536;8.500;2023-09-08T13:54:58;29.60;1.00
38241;DHT22;24037;49.536;8.500;2023-09-08T13:57:24;29.70;1.00
38241;DHT22;24037;49.536;8.500;2023-09-08T13:59:52;30.00;1.00
38241;DHT22;24037;49.536;8.500;2023-09-08T14:02:20;30.20;1.00
38241;DHT22;24037;49.536;8.500;2023-09-08T14:04:46;30.20;1.00
38241;DHT22;24037;49.536;8.500;2023-09-08T14:07:12;30.20;1.00
38241;DHT22;24037;49.536;8.500;2023-09-08T14:09:40;30.00;1.00
38241;DHT22;24037;49.536;8.500;2023-09-08T14:12:06;29.70;1.00
38241;DHT22;24037;49.536;8.500;2023-09-08T14:14:32;29.80;1.00
38241;DHT22;24037;49.536;8.500;2023-09-08T14:16:58;29.90;1.00
38241;DHT22;24037;49.536;8.500;2023-09-08T14:19:25;30.00;1.00
38241;DHT22;24037;49.536;8.500;2023-09-08T14:21:51;30.00;1.00
38241;DHT22;24037;49.536;8.500;2023-09-08T14:24:17;29.90;1.00
38241;DHT22;24037;49.536;8.500;2023-09-08T14:26:43;29.90;1.00
38241;DHT22;24037;49.536;8.500;2023-09-08T14:29:09;29.70;1.00
38241;DHT22;24037;49.536;8.500;2023-09-08T14:31:35;29.70;1.00
38241;DHT22;24037;49.536;8.500;2023-09-08T14:34:02;29.70;1.00
38241;DHT22;24037;49.536;8.500;2023-09-08T14:36:29;29.70;1.00
38241;DHT22;24037;49.536;8.500;2023-09-08T14:38:55;29.80;1.00
38241;DHT22;24037;49.536;8.500;2023-09-08T14:41:21;29.60;1.00
38241;DHT22;24037;49.536;8.500;2023-09-08T14:43:48;29.60;1.00
38241;DHT22;24037;49.536;8.500;2023-09-08T14:46:14;29.60;1.00
38241;DHT22;24037;49.536;8.500;2023-09-08T14:48:40;29.70;1.00
38241;DHT22;24037;49.536;8.500;2023-09-08T14:51:06;29.90;1.00
38241;DHT22;24037;49.536;8.500;2023-09-08T14:53:33;30.00;1.00
38241;DHT22;24037;49.536;8.500;2023-09-08T14:55:59;30.10;1.00
38241;DHT22;24037;49.536;8.500;2023-09-08T14:58:25;30.20;1.00
38241;DHT22;24037;49.536;8.500;2023-09-08T15:00:58;30.20;1.00
38241;DHT22;24037;49.536;8.500;2023-09-08T15:03:33;30.10;1.00
38241;DHT22;24037;49.536;8.500;2023-09-08T15:05:59;30.00;1.00
38241;DHT22;24037;49.536;8.500;2023-09-08T15:08:26;29.90;1.00
38241;DHT22;24037;49.536;8.500;2023-09-08T15:10:52;29.90;1.00
38241;DHT22;24037;49.536;8.500;2023-09-08T15:13:18;30.00;1.00
38241;DHT22;24037;49.536;8.500;2023-09-08T15:15:44;30.00;1.00
38241;DHT22;24037;49.536;8.500;2023-09-08T15:18:10;30.00;1.00
38241;DHT22;24037;49.536;8.500;2023-09-08T15:20:37;30.00;1.00
38241;DHT22;24037;49.536;8.500;2023-09-08T15:23:03;29.80;1.00
38241;DHT22;24037;49.536;8.500;2023-09-08T15:25:29;29.90;1.00
38241;DHT22;24037;49.536;8.500;2023-09-08T15:27:55;29.90;1.00
38241;DHT22;24037;49.536;8.500;2023-09-08T15:30:21;29.80;1.00
38241;DHT22;24037;49.536;8.500;2023-09-08T15:32:48;29.70;1.00
38241;DHT22;24037;49.536;8.500;2023-09-08T15:35:14;29.70;1.00
38241;DHT22;24037;49.536;8.500;2023-09-08T15:37:40;29.70;1.00
38241;DHT22;24037;49.536;8.500;2023-09-08T15:40:07;29.60;1.00
38241;DHT22;24037;49.536;8.500;2023-09-08T15:42:40;29.60;1.00
38241;DHT22;24037;49.536;8.500;2023-09-08T15:45:07;29.60;1.00
38241;DHT22;24037;49.536;8.500;2023-09-08T15:47:34;29.60;1.00